Meteo Giornale » Osservazioni meteo Messico » Mexico City-Licenci

ore: 14:45 - Osservazioni Meteo Mexico City-Licenci
Lat. 19° 26' N Lon. 99° 6' W Alt. 2238 metri s.l.m.

molto_nuvoloso America/Mexico_City

23 °C

Molto Nuvoloso

Temp. 24 Ore

13 °C

23 °C

Est/Sud-Est

14.8 Km/h

Dew point 8 °C

Umidità 38 %

Visibilità  13 Km

Il sole sorge alle ore 06:59

Il sole tramonta alle ore 20:06

Data e Ora Cielo e Fenomeni T °C DP °C Um. % Pres. hPa Vis. km Vento km/h
Oggi h: 14:45 molto_nuvoloso Molto Nuvoloso 23 8 38 1026 13 E/SE 14.8
Oggi h: 13:47 molto_nuvoloso Molto Nuvoloso 22 7 37 1027 13 N/NE 9.3
Oggi h: 12:50 nuvoloso Nuvoloso 21 8 43 1028 13 E 7.4
Oggi h: 12:44 nuvoloso Nuvoloso 21 9 46 1028 13 E/SE 11.1
Oggi h: 11:47 nuvoloso Nuvoloso 19 10 55 1029 14 SE 14.8
Oggi h: 11:32 molto_nuvoloso Molto Nuvoloso 19 9 52 1029 14 E/SE 13
Oggi h: 10:45 molto_nuvoloso Molto Nuvoloso 17 10 63 1029 14 SE 9.3
Oggi h: 09:46 coperto Coperto 15 11 76 1029 11 S 9.3
Oggi h: 08:45 molto_nuvoloso Molto Nuvoloso 14 11 82 1029 11 S/SE 11.1
Oggi h: 07:57 molto_nuvoloso Molto Nuvoloso 13 11 87 1029 11 N 0
Oggi h: 07:45 coperto_pioggia Pioggia Debole 13 11 87 1029 6 N 0
Oggi h: 06:48 coperto_pioggia Pioggia Debole 14 10 76 1029 10 O/NO 18.5
Oggi h: 06:44 coperto_pioggia Pioggia Debole 14 10 76 1029 10 O/NO 18.5
Oggi h: 06:25 coperto Coperto 15 9 67 1028 11 N/NO 18.5
Oggi h: 06:14 coperto_pioggia Pioggia Debole 15 9 67 1028 11 N/NE 11.1
Oggi h: 05:44 coperto Coperto 16 9 63 1028 13 N/NO 9.3
Oggi h: 04:44 molto_nuvoloso Molto Nuvoloso 15 9 67 1027 14 N 3.7
Oggi h: 03:46 molto_nuvoloso Molto Nuvoloso 15 8 62 1027 10 E/SE 9.3
Oggi h: 02:44 coperto Coperto 17 7 51 1027 10 N 5.5
Oggi h: 01:44 molto_nuvoloso Molto Nuvoloso 17 9 59 1027 14 NE 11.1
Oggi h: 00:43 molto_nuvoloso Molto Nuvoloso 17 8 55 1028 14 NO 7.4
Ieri h: 23:42 molto_nuvoloso Molto Nuvoloso 17 9 59 1027 14 O 27.8
Ieri h: 22:45 coperto Coperto 18 9 55 1027 14 O/NO 18.5
Ieri h: 21:46 molto_nuvoloso Molto Nuvoloso 19 8 48 1026 10 N/NE 14.8
Ieri h: 20:46 molto_nuvoloso Molto Nuvoloso 20 9 49 1025 10 E/SE 9.3
Ieri h: 19:40 molto_nuvoloso Molto Nuvoloso 21 5 35 1024 10 S/SO 13
Ieri h: 18:50 molto_nuvoloso Molto Nuvoloso 21 8 43 1024 13 SO 11.1
Ieri h: 17:45 coperto_pioggia Pioggia 22 7 37 1023 13 S 16.7
Ieri h: 16:45 coperto_pioggia Pioggia 22 5 32 1024 10 S/SE 29.6